CheckWX is a tool to help pilots better visualize weather data.  It is not intended as a substitute for an official pre-flight weather briefing.

05:41:12 UTC

SBDN TAF
Presidente Prudente Airport
Presidente Prudente, Brazil
TAF SBDN 272100Z 2800/2812 10010KT CAVOK TX24/2800Z TN18/2808Z PROB40 2808/2810 3000 BR BKN006 BECMG 2810/2812 9999 SCT030 RMK PDJ

Feb-28@
00:00 UTC

Feb-28 @ 00:00 UTC

Feb-28@
10:00 UTC

Feb-28 @ 10:00 UTC

TAF SBDN 272100Z 2800/2812 10010KT CAVOK TX24/2800Z TN18/2808Z
Wind
  • 100° at 10 KTS
Cloud Levels
  • No significant clouds

Feb-28@
08:00 UTC

Feb-28 @ 08:00 UTC

Feb-28@
10:00 UTC

Feb-28 @ 10:00 UTC

PROB40 2808/2810 3000 BR BKN006

Probable - 40% Likelihood

Probable - 40% Likelihood during this time.

Conditions
Mist
Cloud Levels
  • Broken at 600' AGL

Feb-28@
10:00 UTC

Feb-28 @ 10:00 UTC

Feb-28@
12:00 UTC

Feb-28 @ 12:00 UTC

BECMG 2810/2812 9999 SCT030 RMK PDJ

Becoming

Becoming Conditions expected by Fri, Feb 28, 2020 @ 12:00 UTC

Wind
  • 100° at 10 KTS
Cloud Levels
  • Scattered at 3,000' AGL